sensor_id;sensor_type;location;lat;lon;timestamp;temperature;humidity
12053;DHT22;6087;48.982;12.064;2023-06-19T00:00:53;21.20;1.00
12053;DHT22;6087;48.982;12.064;2023-06-19T00:03:23;21.20;1.00
12053;DHT22;6087;48.982;12.064;2023-06-19T00:05:50;21.20;1.00
12053;DHT22;6087;48.982;12.064;2023-06-19T00:08:17;21.20;1.00
12053;DHT22;6087;48.982;12.064;2023-06-19T00:10:45;21.10;1.00
12053;DHT22;6087;48.982;12.064;2023-06-19T00:13:12;21.10;1.00
12053;DHT22;6087;48.982;12.064;2023-06-19T00:15:40;21.10;1.00
12053;DHT22;6087;48.982;12.064;2023-06-19T00:18:07;21.10;1.00
12053;DHT22;6087;48.982;12.064;2023-06-19T00:20:35;21.00;1.00
12053;DHT22;6087;48.982;12.064;2023-06-19T00:23:05;21.00;1.00
12053;DHT22;6087;48.982;12.064;2023-06-19T00:25:36;21.00;1.00
12053;DHT22;6087;48.982;12.064;2023-06-19T00:28:04;21.00;1.00
12053;DHT22;6087;48.982;12.064;2023-06-19T00:30:39;21.00;1.00
12053;DHT22;6087;48.982;12.064;2023-06-19T00:33:07;21.00;1.00
12053;DHT22;6087;48.982;12.064;2023-06-19T00:35:34;20.90;1.00
12053;DHT22;6087;48.982;12.064;2023-06-19T00:38:01;20.90;1.00
12053;DHT22;6087;48.982;12.064;2023-06-19T00:40:30;20.90;1.00
12053;DHT22;6087;48.982;12.064;2023-06-19T00:42:57;20.90;1.00
12053;DHT22;6087;48.982;12.064;2023-06-19T00:45:27;20.90;1.00
12053;DHT22;6087;48.982;12.064;2023-06-19T00:47:55;20.80;1.00
12053;DHT22;6087;48.982;12.064;2023-06-19T00:50:22;20.80;1.00
12053;DHT22;6087;48.982;12.064;2023-06-19T00:52:50;20.80;1.00
12053;DHT22;6087;48.982;12.064;2023-06-19T00:55:17;20.80;1.00
12053;DHT22;6087;48.982;12.064;2023-06-19T00:57:45;20.70;1.00
12053;DHT22;6087;48.982;12.064;2023-06-19T01:00:13;20.70;1.00
12053;DHT22;6087;48.982;12.064;2023-06-19T01:02:42;20.70;1.00
12053;DHT22;6087;48.982;12.064;2023-06-19T01:05:09;20.70;1.00
12053;DHT22;6087;48.982;12.064;2023-06-19T01:07:44;20.70;1.00
12053;DHT22;6087;48.982;12.064;2023-06-19T01:10:18;20.70;1.00
12053;DHT22;6087;48.982;12.064;2023-06-19T01:12:56;20.70;1.00
12053;DHT22;6087;48.982;12.064;2023-06-19T01:15:23;20.60;1.00
12053;DHT22;6087;48.982;12.064;2023-06-19T01:17:53;20.60;1.00
12053;DHT22;6087;48.982;12.064;2023-06-19T01:20:20;20.60;1.00
12053;DHT22;6087;48.982;12.064;2023-06-19T01:22:48;20.60;1.00
12053;DHT22;6087;48.982;12.064;2023-06-19T01:25:18;20.60;1.00
12053;DHT22;6087;48.982;12.064;2023-06-19T01:27:48;20.50;1.00
12053;DHT22;6087;48.982;12.064;2023-06-19T01:30:15;20.50;1.00
12053;DHT22;6087;48.982;12.064;2023-06-19T01:32:48;20.50;1.00
12053;DHT22;6087;48.982;12.064;2023-06-19T01:35:20;20.40;1.00
12053;DHT22;6087;48.982;12.064;2023-06-19T01:37:50;20.40;1.00
12053;DHT22;6087;48.982;12.064;2023-06-19T01:40:22;20.40;1.00
12053;DHT22;6087;48.982;12.064;2023-06-19T01:42:52;20.30;1.00
12053;DHT22;6087;48.982;12.064;2023-06-19T01:45:20;20.30;1.00
12053;DHT22;6087;48.982;12.064;2023-06-19T01:47:47;20.30;1.00
12053;DHT22;6087;48.982;12.064;2023-06-19T01:50:17;20.30;1.00
12053;DHT22;6087;48.982;12.064;2023-06-19T01:52:45;20.30;1.00
12053;DHT22;6087;48.982;12.064;2023-06-19T01:55:14;20.20;1.00
12053;DHT22;6087;48.982;12.064;2023-06-19T01:57:41;20.20;1.00
12053;DHT22;6087;48.982;12.064;2023-06-19T02:00:09;20.20;1.00
12053;DHT22;6087;48.982;12.064;2023-06-19T02:02:36;20.20;1.00
12053;DHT22;6087;48.982;12.064;2023-06-19T02:05:03;20.20;1.00
12053;DHT22;6087;48.982;12.064;2023-06-19T02:07:31;20.20;1.00
12053;DHT22;6087;48.982;12.064;2023-06-19T02:09:58;20.20;1.00
12053;DHT22;6087;48.982;12.064;2023-06-19T02:12:26;20.20;1.00
12053;DHT22;6087;48.982;12.064;2023-06-19T02:14:56;20.20;1.00
12053;DHT22;6087;48.982;12.064;2023-06-19T02:17:26;20.20;1.00
12053;DHT22;6087;48.982;12.064;2023-06-19T02:19:59;20.10;1.00
12053;DHT22;6087;48.982;12.064;2023-06-19T02:22:26;20.10;1.00
12053;DHT22;6087;48.982;12.064;2023-06-19T02:24:57;20.10;1.00
12053;DHT22;6087;48.982;12.064;2023-06-19T02:27:24;20.10;1.00
12053;DHT22;6087;48.982;12.064;2023-06-19T02:29:54;20.10;1.00
12053;DHT22;6087;48.982;12.064;2023-06-19T02:32:21;20.00;1.00
12053;DHT22;6087;48.982;12.064;2023-06-19T02:34:48;20.00;1.00
12053;DHT22;6087;48.982;12.064;2023-06-19T02:37:15;20.00;1.00
12053;DHT22;6087;48.982;12.064;2023-06-19T02:39:42;19.90;1.00
12053;DHT22;6087;48.982;12.064;2023-06-19T02:42:09;19.90;1.00
12053;DHT22;6087;48.982;12.064;2023-06-19T02:44:37;20.00;1.00
12053;DHT22;6087;48.982;12.064;2023-06-19T02:47:06;20.00;1.00
12053;DHT22;6087;48.982;12.064;2023-06-19T02:49:33;20.00;1.00
12053;DHT22;6087;48.982;12.064;2023-06-19T02:52:00;20.00;1.00
12053;DHT22;6087;48.982;12.064;2023-06-19T02:54:27;20.00;1.00
12053;DHT22;6087;48.982;12.064;2023-06-19T02:56:54;20.00;1.00
12053;DHT22;6087;48.982;12.064;2023-06-19T02:59:21;20.00;1.00
12053;DHT22;6087;48.982;12.064;2023-06-19T03:01:48;20.00;1.00
12053;DHT22;6087;48.982;12.064;2023-06-19T03:04:16;20.00;1.00
12053;DHT22;6087;48.982;12.064;2023-06-19T03:06:43;20.00;1.00
12053;DHT22;6087;48.982;12.064;2023-06-19T03:09:10;19.90;1.00
12053;DHT22;6087;48.982;12.064;2023-06-19T03:11:38;19.80;1.00
12053;DHT22;6087;48.982;12.064;2023-06-19T03:14:06;19.80;1.00
12053;DHT22;6087;48.982;12.064;2023-06-19T03:16:34;19.80;1.00
12053;DHT22;6087;48.982;12.064;2023-06-19T03:19:01;19.80;1.00
12053;DHT22;6087;48.982;12.064;2023-06-19T03:21:30;19.80;1.00
12053;DHT22;6087;48.982;12.064;2023-06-19T03:23:57;19.80;1.00
12053;DHT22;6087;48.982;12.064;2023-06-19T03:26:24;19.80;1.00
12053;DHT22;6087;48.982;12.064;2023-06-19T03:28:51;19.90;1.00
12053;DHT22;6087;48.982;12.064;2023-06-19T03:31:18;19.90;1.00
12053;DHT22;6087;48.982;12.064;2023-06-19T03:33:45;19.90;1.00
12053;DHT22;6087;48.982;12.064;2023-06-19T03:36:13;19.90;1.00
12053;DHT22;6087;48.982;12.064;2023-06-19T03:38:41;19.90;1.00
12053;DHT22;6087;48.982;12.064;2023-06-19T03:41:08;19.90;1.00
12053;DHT22;6087;48.982;12.064;2023-06-19T03:43:35;19.90;1.00
12053;DHT22;6087;48.982;12.064;2023-06-19T03:46:05;19.90;1.00
12053;DHT22;6087;48.982;12.064;2023-06-19T03:48:32;19.90;1.00
12053;DHT22;6087;48.982;12.064;2023-06-19T03:50:59;19.90;1.00
12053;DHT22;6087;48.982;12.064;2023-06-19T03:53:27;19.80;1.00
12053;DHT22;6087;48.982;12.064;2023-06-19T03:55:55;19.80;1.00
12053;DHT22;6087;48.982;12.064;2023-06-19T03:58:22;19.80;1.00
12053;DHT22;6087;48.982;12.064;2023-06-19T04:00:50;19.80;1.00
12053;DHT22;6087;48.982;12.064;2023-06-19T04:03:17;19.80;1.00
12053;DHT22;6087;48.982;12.064;2023-06-19T04:05:44;19.80;1.00
12053;DHT22;6087;48.982;12.064;2023-06-19T04:08:11;19.80;1.00
12053;DHT22;6087;48.982;12.064;2023-06-19T04:10:38;19.80;1.00
12053;DHT22;6087;48.982;12.064;2023-06-19T04:13:07;19.80;1.00
12053;DHT22;6087;48.982;12.064;2023-06-19T04:15:34;19.80;1.00
12053;DHT22;6087;48.982;12.064;2023-06-19T04:18:02;19.80;1.00
12053;DHT22;6087;48.982;12.064;2023-06-19T04:20:29;19.70;1.00
12053;DHT22;6087;48.982;12.064;2023-06-19T04:22:57;19.70;1.00
12053;DHT22;6087;48.982;12.064;2023-06-19T04:25:24;19.70;1.00
12053;DHT22;6087;48.982;12.064;2023-06-19T04:27:51;19.80;1.00
12053;DHT22;6087;48.982;12.064;2023-06-19T04:30:19;19.80;1.00
12053;DHT22;6087;48.982;12.064;2023-06-19T04:32:47;19.80;1.00
12053;DHT22;6087;48.982;12.064;2023-06-19T04:35:14;19.80;1.00
12053;DHT22;6087;48.982;12.064;2023-06-19T04:37:43;19.70;1.00
12053;DHT22;6087;48.982;12.064;2023-06-19T04:40:11;19.70;1.00
12053;DHT22;6087;48.982;12.064;2023-06-19T04:42:38;19.80;1.00
12053;DHT22;6087;48.982;12.064;2023-06-19T04:45:06;19.80;1.00
12053;DHT22;6087;48.982;12.064;2023-06-19T04:47:36;19.80;1.00
12053;DHT22;6087;48.982;12.064;2023-06-19T04:50:04;19.80;1.00
12053;DHT22;6087;48.982;12.064;2023-06-19T04:52:31;19.80;1.00
12053;DHT22;6087;48.982;12.064;2023-06-19T04:54:59;19.80;1.00
12053;DHT22;6087;48.982;12.064;2023-06-19T04:57:29;19.80;1.00
12053;DHT22;6087;48.982;12.064;2023-06-19T04:59:56;19.80;1.00
12053;DHT22;6087;48.982;12.064;2023-06-19T05:02:23;19.80;1.00
12053;DHT22;6087;48.982;12.064;2023-06-19T05:04:55;19.80;1.00
12053;DHT22;6087;48.982;12.064;2023-06-19T05:07:24;19.80;1.00
12053;DHT22;6087;48.982;12.064;2023-06-19T05:09:54;19.80;1.00
12053;DHT22;6087;48.982;12.064;2023-06-19T05:12:26;19.80;1.00
12053;DHT22;6087;48.982;12.064;2023-06-19T05:18:14;19.80;1.00
12053;DHT22;6087;48.982;12.064;2023-06-19T05:20:43;19.80;1.00
12053;DHT22;6087;48.982;12.064;2023-06-19T05:23:11;19.80;1.00
12053;DHT22;6087;48.982;12.064;2023-06-19T05:25:38;19.90;1.00
12053;DHT22;6087;48.982;12.064;2023-06-19T05:28:05;19.90;1.00
12053;DHT22;6087;48.982;12.064;2023-06-19T05:30:32;19.90;1.00
12053;DHT22;6087;48.982;12.064;2023-06-19T05:33:03;19.90;1.00
12053;DHT22;6087;48.982;12.064;2023-06-19T05:35:35;19.90;1.00
12053;DHT22;6087;48.982;12.064;2023-06-19T05:38:07;20.00;1.00
12053;DHT22;6087;48.982;12.064;2023-06-19T05:40:34;20.00;1.00
12053;DHT22;6087;48.982;12.064;2023-06-19T05:43:01;20.00;1.00
12053;DHT22;6087;48.982;12.064;2023-06-19T05:45:28;20.00;1.00
12053;DHT22;6087;48.982;12.064;2023-06-19T05:47:55;20.00;1.00
12053;DHT22;6087;48.982;12.064;2023-06-19T05:50:22;20.10;1.00
12053;DHT22;6087;48.982;12.064;2023-06-19T05:52:51;20.00;1.00
12053;DHT22;6087;48.982;12.064;2023-06-19T05:55:19;20.10;1.00
12053;DHT22;6087;48.982;12.064;2023-06-19T05:57:46;20.10;1.00
12053;DHT22;6087;48.982;12.064;2023-06-19T06:00:15;20.10;1.00
12053;DHT22;6087;48.982;12.064;2023-06-19T06:02:42;20.10;1.00
12053;DHT22;6087;48.982;12.064;2023-06-19T06:05:09;20.20;1.00
12053;DHT22;6087;48.982;12.064;2023-06-19T06:07:36;20.20;1.00
12053;DHT22;6087;48.982;12.064;2023-06-19T06:10:04;20.30;1.00
12053;DHT22;6087;48.982;12.064;2023-06-19T06:12:35;20.30;1.00
12053;DHT22;6087;48.982;12.064;2023-06-19T06:15:02;20.30;1.00
12053;DHT22;6087;48.982;12.064;2023-06-19T06:17:29;20.30;1.00
12053;DHT22;6087;48.982;12.064;2023-06-19T06:19:56;20.30;1.00
12053;DHT22;6087;48.982;12.064;2023-06-19T06:22:23;20.30;1.00
12053;DHT22;6087;48.982;12.064;2023-06-19T06:24:50;20.30;1.00
12053;DHT22;6087;48.982;12.064;2023-06-19T06:27:18;20.40;1.00
12053;DHT22;6087;48.982;12.064;2023-06-19T06:29:47;20.40;1.00
12053;DHT22;6087;48.982;12.064;2023-06-19T06:32:14;20.40;1.00
12053;DHT22;6087;48.982;12.064;2023-06-19T06:34:41;20.40;1.00
12053;DHT22;6087;48.982;12.064;2023-06-19T06:37:08;20.40;1.00
12053;DHT22;6087;48.982;12.064;2023-06-19T06:39:38;20.50;1.00
12053;DHT22;6087;48.982;12.064;2023-06-19T06:42:05;20.50;1.00
12053;DHT22;6087;48.982;12.064;2023-06-19T06:44:33;20.60;1.00
12053;DHT22;6087;48.982;12.064;2023-06-19T06:47:01;20.60;1.00
12053;DHT22;6087;48.982;12.064;2023-06-19T06:49:28;20.60;1.00
12053;DHT22;6087;48.982;12.064;2023-06-19T06:51:58;20.60;1.00
12053;DHT22;6087;48.982;12.064;2023-06-19T06:54:26;20.70;1.00
12053;DHT22;6087;48.982;12.064;2023-06-19T06:57:03;20.70;1.00
12053;DHT22;6087;48.982;12.064;2023-06-19T06:59:30;20.80;1.00
12053;DHT22;6087;48.982;12.064;2023-06-19T07:01:58;20.80;1.00
12053;DHT22;6087;48.982;12.064;2023-06-19T07:04:26;20.80;1.00
12053;DHT22;6087;48.982;12.064;2023-06-19T07:06:53;20.90;1.00
12053;DHT22;6087;48.982;12.064;2023-06-19T07:09:23;20.90;1.00
12053;DHT22;6087;48.982;12.064;2023-06-19T07:11:50;20.90;1.00
12053;DHT22;6087;48.982;12.064;2023-06-19T07:14:17;21.00;1.00
12053;DHT22;6087;48.982;12.064;2023-06-19T07:16:44;21.00;1.00
12053;DHT22;6087;48.982;12.064;2023-06-19T07:19:11;21.10;1.00
12053;DHT22;6087;48.982;12.064;2023-06-19T07:21:46;21.10;1.00
12053;DHT22;6087;48.982;12.064;2023-06-19T07:24:13;21.20;1.00
12053;DHT22;6087;48.982;12.064;2023-06-19T07:26:40;21.20;1.00
12053;DHT22;6087;48.982;12.064;2023-06-19T07:29:07;21.20;1.00
12053;DHT22;6087;48.982;12.064;2023-06-19T07:31:34;21.20;1.00
12053;DHT22;6087;48.982;12.064;2023-06-19T07:34:01;21.30;1.00
12053;DHT22;6087;48.982;12.064;2023-06-19T07:36:29;21.30;1.00
12053;DHT22;6087;48.982;12.064;2023-06-19T07:39:00;21.40;1.00
12053;DHT22;6087;48.982;12.064;2023-06-19T07:41:33;21.50;1.00
12053;DHT22;6087;48.982;12.064;2023-06-19T07:44:02;21.50;1.00
12053;DHT22;6087;48.982;12.064;2023-06-19T07:46:29;21.50;1.00
12053;DHT22;6087;48.982;12.064;2023-06-19T07:48:56;21.60;1.00
12053;DHT22;6087;48.982;12.064;2023-06-19T07:51:23;21.60;1.00
12053;DHT22;6087;48.982;12.064;2023-06-19T07:53:50;21.60;1.00
12053;DHT22;6087;48.982;12.064;2023-06-19T07:56:19;21.70;1.00
12053;DHT22;6087;48.982;12.064;2023-06-19T07:58:47;21.70;1.00
12053;DHT22;6087;48.982;12.064;2023-06-19T08:01:16;21.80;1.00
12053;DHT22;6087;48.982;12.064;2023-06-19T08:03:55;21.80;1.00
12053;DHT22;6087;48.982;12.064;2023-06-19T08:06:22;21.90;1.00
12053;DHT22;6087;48.982;12.064;2023-06-19T08:08:50;21.90;1.00
12053;DHT22;6087;48.982;12.064;2023-06-19T08:11:18;22.00;1.00
12053;DHT22;6087;48.982;12.064;2023-06-19T08:13:45;22.10;1.00
12053;DHT22;6087;48.982;12.064;2023-06-19T08:16:13;22.20;1.00
12053;DHT22;6087;48.982;12.064;2023-06-19T08:18:47;22.20;1.00
12053;DHT22;6087;48.982;12.064;2023-06-19T08:21:14;22.40;1.00
12053;DHT22;6087;48.982;12.064;2023-06-19T08:23:41;22.40;1.00
12053;DHT22;6087;48.982;12.064;2023-06-19T08:26:09;22.50;1.00
12053;DHT22;6087;48.982;12.064;2023-06-19T08:28:40;22.60;1.00
12053;DHT22;6087;48.982;12.064;2023-06-19T08:31:13;22.70;1.00
12053;DHT22;6087;48.982;12.064;2023-06-19T08:33:40;22.70;1.00
12053;DHT22;6087;48.982;12.064;2023-06-19T08:36:07;22.80;1.00
12053;DHT22;6087;48.982;12.064;2023-06-19T08:38:34;22.80;1.00
12053;DHT22;6087;48.982;12.064;2023-06-19T08:41:01;22.90;1.00
12053;DHT22;6087;48.982;12.064;2023-06-19T08:43:28;22.90;1.00
12053;DHT22;6087;48.982;12.064;2023-06-19T08:46:09;23.00;1.00
12053;DHT22;6087;48.982;12.064;2023-06-19T08:48:37;23.00;1.00
12053;DHT22;6087;48.982;12.064;2023-06-19T08:51:05;23.10;1.00
12053;DHT22;6087;48.982;12.064;2023-06-19T08:53:34;23.20;1.00
12053;DHT22;6087;48.982;12.064;2023-06-19T08:56:02;23.20;1.00
12053;DHT22;6087;48.982;12.064;2023-06-19T08:58:35;23.30;1.00
12053;DHT22;6087;48.982;12.064;2023-06-19T09:01:04;23.40;1.00
12053;DHT22;6087;48.982;12.064;2023-06-19T09:03:31;23.40;1.00
12053;DHT22;6087;48.982;12.064;2023-06-19T09:06:03;23.40;1.00
12053;DHT22;6087;48.982;12.064;2023-06-19T09:08:39;23.40;1.00
12053;DHT22;6087;48.982;12.064;2023-06-19T09:11:06;23.40;1.00
12053;DHT22;6087;48.982;12.064;2023-06-19T09:13:33;23.40;1.00
12053;DHT22;6087;48.982;12.064;2023-06-19T09:16:09;23.50;1.00
12053;DHT22;6087;48.982;12.064;2023-06-19T09:18:43;23.50;1.00
12053;DHT22;6087;48.982;12.064;2023-06-19T09:21:15;23.50;1.00
12053;DHT22;6087;48.982;12.064;2023-06-19T09:23:43;23.50;1.00
12053;DHT22;6087;48.982;12.064;2023-06-19T09:26:17;23.40;1.00
12053;DHT22;6087;48.982;12.064;2023-06-19T09:28:48;23.50;1.00
12053;DHT22;6087;48.982;12.064;2023-06-19T09:31:20;23.50;1.00
12053;DHT22;6087;48.982;12.064;2023-06-19T09:33:47;23.60;1.00
12053;DHT22;6087;48.982;12.064;2023-06-19T09:36:14;23.60;1.00
12053;DHT22;6087;48.982;12.064;2023-06-19T09:38:42;23.60;1.00
12053;DHT22;6087;48.982;12.064;2023-06-19T09:41:12;23.70;1.00
12053;DHT22;6087;48.982;12.064;2023-06-19T09:43:50;23.80;1.00
12053;DHT22;6087;48.982;12.064;2023-06-19T09:46:20;23.80;1.00
12053;DHT22;6087;48.982;12.064;2023-06-19T09:48:51;23.90;1.00
12053;DHT22;6087;48.982;12.064;2023-06-19T09:51:23;24.10;1.00
12053;DHT22;6087;48.982;12.064;2023-06-19T09:53:57;24.10;1.00
12053;DHT22;6087;48.982;12.064;2023-06-19T09:56:25;24.20;1.00
12053;DHT22;6087;48.982;12.064;2023-06-19T09:58:54;24.30;1.00
12053;DHT22;6087;48.982;12.064;2023-06-19T10:01:25;24.30;1.00
12053;DHT22;6087;48.982;12.064;2023-06-19T10:04:04;24.30;1.00
12053;DHT22;6087;48.982;12.064;2023-06-19T10:06:32;24.30;1.00
12053;DHT22;6087;48.982;12.064;2023-06-19T10:09:06;24.20;1.00
12053;DHT22;6087;48.982;12.064;2023-06-19T10:11:55;24.10;1.00
12053;DHT22;6087;48.982;12.064;2023-06-19T10:14:22;24.10;1.00
12053;DHT22;6087;48.982;12.064;2023-06-19T10:16:51;24.20;1.00
12053;DHT22;6087;48.982;12.064;2023-06-19T10:19:21;24.20;1.00
12053;DHT22;6087;48.982;12.064;2023-06-19T10:21:55;24.30;1.00
12053;DHT22;6087;48.982;12.064;2023-06-19T10:24:31;24.30;1.00
12053;DHT22;6087;48.982;12.064;2023-06-19T10:27:01;24.40;1.00
12053;DHT22;6087;48.982;12.064;2023-06-19T10:29:38;24.40;1.00
12053;DHT22;6087;48.982;12.064;2023-06-19T10:32:07;24.50;1.00
12053;DHT22;6087;48.982;12.064;2023-06-19T10:34:35;24.60;1.00
12053;DHT22;6087;48.982;12.064;2023-06-19T10:37:02;24.70;1.00
12053;DHT22;6087;48.982;12.064;2023-06-19T10:39:30;24.80;1.00
12053;DHT22;6087;48.982;12.064;2023-06-19T10:41:56;24.80;1.00
12053;DHT22;6087;48.982;12.064;2023-06-19T10:44:24;24.90;1.00
12053;DHT22;6087;48.982;12.064;2023-06-19T10:46:52;25.00;1.00
12053;DHT22;6087;48.982;12.064;2023-06-19T10:49:21;25.00;1.00
12053;DHT22;6087;48.982;12.064;2023-06-19T10:51:48;25.00;1.00
12053;DHT22;6087;48.982;12.064;2023-06-19T10:54:16;25.00;1.00
12053;DHT22;6087;48.982;12.064;2023-06-19T10:56:43;25.00;1.00
12053;DHT22;6087;48.982;12.064;2023-06-19T10:59:13;25.10;1.00
12053;DHT22;6087;48.982;12.064;2023-06-19T11:01:41;25.10;1.00
12053;DHT22;6087;48.982;12.064;2023-06-19T11:04:10;25.10;1.00
12053;DHT22;6087;48.982;12.064;2023-06-19T11:06:39;25.10;1.00
12053;DHT22;6087;48.982;12.064;2023-06-19T11:09:08;25.10;1.00
12053;DHT22;6087;48.982;12.064;2023-06-19T11:11:39;25.10;1.00
12053;DHT22;6087;48.982;12.064;2023-06-19T11:14:07;25.00;1.00
12053;DHT22;6087;48.982;12.064;2023-06-19T11:16:34;25.00;1.00
12053;DHT22;6087;48.982;12.064;2023-06-19T11:19:01;25.00;1.00
12053;DHT22;6087;48.982;12.064;2023-06-19T11:21:30;24.90;1.00
12053;DHT22;6087;48.982;12.064;2023-06-19T11:24:00;24.90;1.00
12053;DHT22;6087;48.982;12.064;2023-06-19T11:26:27;24.90;1.00
12053;DHT22;6087;48.982;12.064;2023-06-19T11:28:54;24.80;1.00
12053;DHT22;6087;48.982;12.064;2023-06-19T11:31:25;24.80;1.00
12053;DHT22;6087;48.982;12.064;2023-06-19T11:33:57;24.70;1.00
12053;DHT22;6087;48.982;12.064;2023-06-19T11:36:24;24.70;1.00
12053;DHT22;6087;48.982;12.064;2023-06-19T11:38:51;24.60;1.00
12053;DHT22;6087;48.982;12.064;2023-06-19T11:41:26;24.60;1.00
12053;DHT22;6087;48.982;12.064;2023-06-19T11:44:00;24.50;1.00
12053;DHT22;6087;48.982;12.064;2023-06-19T11:46:31;24.50;1.00
12053;DHT22;6087;48.982;12.064;2023-06-19T11:49:16;24.40;1.00
12053;DHT22;6087;48.982;12.064;2023-06-19T11:51:53;24.40;1.00
12053;DHT22;6087;48.982;12.064;2023-06-19T11:54:21;24.40;1.00
12053;DHT22;6087;48.982;12.064;2023-06-19T11:56:50;24.30;1.00
12053;DHT22;6087;48.982;12.064;2023-06-19T11:59:18;24.30;1.00
12053;DHT22;6087;48.982;12.064;2023-06-19T12:01:46;24.30;1.00
12053;DHT22;6087;48.982;12.064;2023-06-19T12:04:15;24.30;1.00
12053;DHT22;6087;48.982;12.064;2023-06-19T12:06:42;24.30;1.00
12053;DHT22;6087;48.982;12.064;2023-06-19T12:09:11;24.30;1.00
12053;DHT22;6087;48.982;12.064;2023-06-19T12:11:38;24.30;1.00
12053;DHT22;6087;48.982;12.064;2023-06-19T12:14:09;24.30;1.00
12053;DHT22;6087;48.982;12.064;2023-06-19T12:16:36;24.30;1.00
12053;DHT22;6087;48.982;12.064;2023-06-19T12:19:03;24.40;1.00
12053;DHT22;6087;48.982;12.064;2023-06-19T12:21:30;24.40;1.00
12053;DHT22;6087;48.982;12.064;2023-06-19T12:23:57;24.50;1.00
12053;DHT22;6087;48.982;12.064;2023-06-19T12:26:25;24.60;1.00
12053;DHT22;6087;48.982;12.064;2023-06-19T12:28:52;24.70;1.00
12053;DHT22;6087;48.982;12.064;2023-06-19T12:31:21;24.90;1.00
12053;DHT22;6087;48.982;12.064;2023-06-19T12:33:48;25.00;1.00
12053;DHT22;6087;48.982;12.064;2023-06-19T12:36:15;25.20;1.00
12053;DHT22;6087;48.982;12.064;2023-06-19T12:38:42;25.40;1.00
12053;DHT22;6087;48.982;12.064;2023-06-19T12:41:09;25.50;1.00
12053;DHT22;6087;48.982;12.064;2023-06-19T12:43:36;25.60;1.00
12053;DHT22;6087;48.982;12.064;2023-06-19T12:46:03;25.70;1.00
12053;DHT22;6087;48.982;12.064;2023-06-19T12:48:32;25.90;1.00
12053;DHT22;6087;48.982;12.064;2023-06-19T12:50:59;26.00;1.00
12053;DHT22;6087;48.982;12.064;2023-06-19T12:53:26;26.20;1.00
12053;DHT22;6087;48.982;12.064;2023-06-19T12:55:56;26.30;1.00
12053;DHT22;6087;48.982;12.064;2023-06-19T12:58:24;26.50;1.00
12053;DHT22;6087;48.982;12.064;2023-06-19T13:00:51;26.60;1.00
12053;DHT22;6087;48.982;12.064;2023-06-19T13:03:27;26.80;1.00
12053;DHT22;6087;48.982;12.064;2023-06-19T13:05:59;26.90;1.00
12053;DHT22;6087;48.982;12.064;2023-06-19T13:08:26;27.00;1.00
12053;DHT22;6087;48.982;12.064;2023-06-19T13:10:59;27.10;1.00
12053;DHT22;6087;48.982;12.064;2023-06-19T13:13:26;27.20;1.00
12053;DHT22;6087;48.982;12.064;2023-06-19T13:15:59;27.30;1.00
12053;DHT22;6087;48.982;12.064;2023-06-19T13:18:26;27.30;1.00
12053;DHT22;6087;48.982;12.064;2023-06-19T13:20:53;27.20;1.00
12053;DHT22;6087;48.982;12.064;2023-06-19T13:23:21;27.10;1.00
12053;DHT22;6087;48.982;12.064;2023-06-19T13:25:48;27.10;1.00
12053;DHT22;6087;48.982;12.064;2023-06-19T13:28:15;27.20;1.00
12053;DHT22;6087;48.982;12.064;2023-06-19T13:30:51;27.30;1.00
12053;DHT22;6087;48.982;12.064;2023-06-19T13:33:18;27.40;1.00
12053;DHT22;6087;48.982;12.064;2023-06-19T13:35:45;27.50;1.00
12053;DHT22;6087;48.982;12.064;2023-06-19T13:38:12;27.40;1.00
12053;DHT22;6087;48.982;12.064;2023-06-19T13:40:42;27.30;1.00
12053;DHT22;6087;48.982;12.064;2023-06-19T13:43:09;27.30;1.00
12053;DHT22;6087;48.982;12.064;2023-06-19T13:45:36;27.40;1.00
12053;DHT22;6087;48.982;12.064;2023-06-19T13:48:05;27.40;1.00
12053;DHT22;6087;48.982;12.064;2023-06-19T13:50:32;27.40;1.00
12053;DHT22;6087;48.982;12.064;2023-06-19T13:53:01;27.20;1.00
12053;DHT22;6087;48.982;12.064;2023-06-19T13:55:28;27.20;1.00
12053;DHT22;6087;48.982;12.064;2023-06-19T13:57:57;27.10;1.00
12053;DHT22;6087;48.982;12.064;2023-06-19T14:00:24;27.10;1.00
12053;DHT22;6087;48.982;12.064;2023-06-19T14:02:53;27.10;1.00
12053;DHT22;6087;48.982;12.064;2023-06-19T14:05:20;27.10;1.00
12053;DHT22;6087;48.982;12.064;2023-06-19T14:07:47;27.10;1.00
12053;DHT22;6087;48.982;12.064;2023-06-19T14:10:14;27.10;1.00
12053;DHT22;6087;48.982;12.064;2023-06-19T14:12:41;27.10;1.00
12053;DHT22;6087;48.982;12.064;2023-06-19T14:15:10;27.20;1.00
12053;DHT22;6087;48.982;12.064;2023-06-19T14:17:37;27.20;1.00
12053;DHT22;6087;48.982;12.064;2023-06-19T14:20:07;27.20;1.00
12053;DHT22;6087;48.982;12.064;2023-06-19T14:22:35;27.20;1.00
12053;DHT22;6087;48.982;12.064;2023-06-19T14:25:02;27.20;1.00
12053;DHT22;6087;48.982;12.064;2023-06-19T14:27:29;27.20;1.00
12053;DHT22;6087;48.982;12.064;2023-06-19T14:29:57;27.20;1.00
12053;DHT22;6087;48.982;12.064;2023-06-19T14:32:25;27.20;1.00
12053;DHT22;6087;48.982;12.064;2023-06-19T14:34:52;27.20;1.00
12053;DHT22;6087;48.982;12.064;2023-06-19T14:37:19;27.20;1.00
12053;DHT22;6087;48.982;12.064;2023-06-19T14:39:46;27.30;1.00
12053;DHT22;6087;48.982;12.064;2023-06-19T14:42:13;27.30;1.00
12053;DHT22;6087;48.982;12.064;2023-06-19T14:44:40;27.30;1.00
12053;DHT22;6087;48.982;12.064;2023-06-19T14:47:07;27.30;1.00
12053;DHT22;6087;48.982;12.064;2023-06-19T14:49:36;27.30;1.00
12053;DHT22;6087;48.982;12.064;2023-06-19T14:52:03;27.30;1.00
12053;DHT22;6087;48.982;12.064;2023-06-19T14:54:31;27.30;1.00
12053;DHT22;6087;48.982;12.064;2023-06-19T14:56:58;27.30;1.00
12053;DHT22;6087;48.982;12.064;2023-06-19T14:59:30;27.30;1.00
12053;DHT22;6087;48.982;12.064;2023-06-19T15:01:57;27.30;1.00
12053;DHT22;6087;48.982;12.064;2023-06-19T15:04:27;27.30;1.00
12053;DHT22;6087;48.982;12.064;2023-06-19T15:06:56;27.30;1.00
12053;DHT22;6087;48.982;12.064;2023-06-19T15:09:23;27.30;1.00
12053;DHT22;6087;48.982;12.064;2023-06-19T15:11:51;27.30;1.00
12053;DHT22;6087;48.982;12.064;2023-06-19T15:14:18;27.30;1.00
12053;DHT22;6087;48.982;12.064;2023-06-19T15:16:45;27.30;1.00
12053;DHT22;6087;48.982;12.064;2023-06-19T15:19:13;27.30;1.00
12053;DHT22;6087;48.982;12.064;2023-06-19T15:21:41;27.20;1.00
12053;DHT22;6087;48.982;12.064;2023-06-19T15:24:09;27.20;1.00
12053;DHT22;6087;48.982;12.064;2023-06-19T15:26:36;27.20;1.00
12053;DHT22;6087;48.982;12.064;2023-06-19T15:29:04;27.20;1.00
12053;DHT22;6087;48.982;12.064;2023-06-19T15:31:31;27.20;1.00
12053;DHT22;6087;48.982;12.064;2023-06-19T15:34:10;27.30;1.00
12053;DHT22;6087;48.982;12.064;2023-06-19T15:36:37;27.30;1.00
12053;DHT22;6087;48.982;12.064;2023-06-19T15:39:04;27.20;1.00
12053;DHT22;6087;48.982;12.064;2023-06-19T15:41:32;27.20;1.00
12053;DHT22;6087;48.982;12.064;2023-06-19T15:43:59;27.20;1.00
12053;DHT22;6087;48.982;12.064;2023-06-19T15:46:26;27.20;1.00
12053;DHT22;6087;48.982;12.064;2023-06-19T15:48:56;27.20;1.00
12053;DHT22;6087;48.982;12.064;2023-06-19T15:51:28;27.20;1.00
12053;DHT22;6087;48.982;12.064;2023-06-19T15:53:55;27.20;1.00
12053;DHT22;6087;48.982;12.064;2023-06-19T15:56:22;27.20;1.00